SHASTA DAM (USBR) (SHA)

Elevation: 1067' · SACRAMENTO R basin · Operator: US Bureau of Reclamation

Provisional data, subject to change.
Query executed Tuesday at 11:43:23   clock

Select a sensor type for a plot of data.
Note: Reservoir Flows are daily averages.

Earlier

Date RES ELE    STORAGE    RES CHG    TOC STO    ABV TOC    OUTFLOW    INFLOW    EVAP    FNF    RIV REL    PPT INC    RAIN    SPILL    DIS PWR   
 FEET   AF   AF   AF   AF   CFS   CFS   CFS   CFS   CFS   INCHES   INCHES   CFS   CFS  
08/04/2014 928.27 1541101 -10277 4552100 -3010999 7530 2523 174 2340 0 0.00 30.55 0 7530
08/05/2014 927.63 1531872 -9229 4552100 -3020228 6086 1518 85 2470 0 0.08 30.63 0 6086
08/06/2014 926.75 1519242 -12630 4552100 -3032858 7684 1341 25 2406 0 0.37 31.00 0 7684
08/07/2014 925.97 1508102 -11140 4552100 -3043998 7513 1998 101 2390 0 0.00 31.00 0 7513
08/08/2014 925.37 1499587 -8515 4552100 -- 6211 2043 125 2283 0 0.00 31.00 0 6211
08/09/2014 924.81 1491658 -7929 4552100 -3060442 6080 2270 187 2489 0 0.00 31.00 0 6080
08/10/2014 924.32 1484751 -6907 4552100 -3067349 5768 2452 166 2403 0 0.00 31.00 0 5768
08/11/2014 923.96 1479680 -5071 4552100 -3072420 5620 3187 124 2407 0 0.00 31.00 0 5620
08/12/2014 923.56 1474078 -5602 4552100 -3078022 5277 2585 132 2328 0 0.00 31.00 0 5277
08/13/2014 923.12 1467916 -6162 4552100 -3084184 5567 2588 128 2329 0 0.00 31.00 0 5567
08/14/2014 922.71 1462201 -5715 4552100 -3089899 5259 2501 123 2404 0 0.00 31.00 0 5259
08/15/2014 922.22 1455384 -6817 4552100 -3096716 5773 2479 143 2265 0 0.00 31.00 0 5773
08/16/2014 921.78 1449284 -6100 4552100 -3102816 5331 2395 139 2378 0 0.00 31.00 0 5331
08/17/2014 921.33 1443066 -6218 4552100 -3109034 5251 2263 147 2376 0 0.00 31.00 0 5251
08/18/2014 920.90 1437133 -5933 4552100 -3114967 5064 2235 162 2255 0 0.00 31.00 0 5064
08/19/2014 920.41 1430408 -6725 4552100 -3121692 5161 1933 162 2419 0 0.00 31.00 0 5161
08/20/2014 919.95 1424095 -6313 4552100 -3128005 5440 2414 157 2471 0 0.00 31.00 0 5440
08/21/2014 919.56 1418749 -5346 4552100 -3133351 5340 2766 121 2205 0 0.00 31.00 0 5340
08/22/2014 919.08 1412170 -6579 4552100 -3139930 5415 2238 140 2301 0 0.00 31.00 0 5415
08/23/2014 918.64 1406173 -5997 4552100 -3145927 5097 2234 160 2308 0 0.00 31.00 0 5097
08/24/2014 918.06 1398278 -7895 4552100 -3153822 6171 2338 147 2415 0 0.00 31.00 0 6171
08/25/2014 917.57 1391647 -6631 4552100 -3160453 5669 2481 155 2482 0 0.00 31.00 0 5669
08/26/2014 917.08 1385022 -6625 4552100 -3167078 6452 3247 135 2607 0 0.00 31.00 0 6452
08/27/2014 916.66 1379374 -5648 4552100 -3172726 6414 3709 142 3058 0 0.00 31.00 0 6414
08/28/2014 915.94 1369711 -9663 4552100 -3182389 7041 2267 98 2188 0 0.00 31.00 0 7041
08/29/2014 915.22 1360108 -9603 4552100 -3191992 6297 1593 137 2273 0 0.00 31.00 0 6297
08/30/2014 914.55 1351214 -8894 4552100 -3200886 6530 2213 167 2036 0 0.00 31.00 0 6530
08/31/2014 913.86 1342087 -9127 4552100 -3210013 6781 2316 136 2333 0 0.00 31.00 0 6781
09/01/2014 913.32 1334984 -7103 4552100 -3217116 6480 3015 116 2270 0 0.00 31.00 0 6480
09/02/2014 -- -- -- -- -- -- -- -- -- -- -- -- -- --

Later | Latest

Warning! This data is preliminary and subject to revision.

Download Data Now Download Data Now | Show SHA Map | Plot SHA Data | 1 Month SHA Data | Real-Time SHA Data | SHA Info